Abaiara, Brazil
Current Conditions -  °F | °C
As of 12:00 AM on Wednesday 26 Nov 2014 (Local Time) from SBJU Reporting Station
Scattered Clouds Scattered Clouds  
Wind Chill: 86°   Ceiling: Unl
Heat Index: 90°   Visibility: 6mi
Dew Point: 70°   Wind: 7mph
Humidity: 58%   Direction: 70°ENE
Pressure: 29.97"   Gusts: NA
Location:  7.36°S, 39.05°W
Report Text: SBJU 260300Z 07006KT 9999 FEW020 SCT022 30/21 Q1015
Loading
Personal Weather Stations






























Interactive Weather Map New forecast layout! Learn more

10-Day Weather Forecast

Advertisements
Track Severe Weather on mobile